sensor_id;sensor_type;location;lat;lon;timestamp;temperature;humidity
79020;DHT22;72857;44.740;37.770;2023-12-14T00:01:00;9.33;78.34
79020;DHT22;72857;44.740;37.770;2023-12-14T00:02:04;9.30;78.53
79020;DHT22;72857;44.740;37.770;2023-12-14T00:03:05;9.33;78.63
79020;DHT22;72857;44.740;37.770;2023-12-14T00:04:07;9.37;78.72
79020;DHT22;72857;44.740;37.770;2023-12-14T00:05:09;9.40;78.75
79020;DHT22;72857;44.740;37.770;2023-12-14T00:06:11;9.40;78.68
79020;DHT22;72857;44.740;37.770;2023-12-14T00:07:12;9.39;78.36
79020;DHT22;72857;44.740;37.770;2023-12-14T00:08:16;9.37;78.17
79020;DHT22;72857;44.740;37.770;2023-12-14T00:09:18;9.40;77.63
79020;DHT22;72857;44.740;37.770;2023-12-14T00:10:19;9.42;77.39
79020;DHT22;72857;44.740;37.770;2023-12-14T00:11:21;9.43;77.31
79020;DHT22;72857;44.740;37.770;2023-12-14T00:12:23;9.40;77.17
79020;DHT22;72857;44.740;37.770;2023-12-14T00:13:24;9.40;77.25
79020;DHT22;72857;44.740;37.770;2023-12-14T00:14:26;9.40;77.28
79020;DHT22;72857;44.740;37.770;2023-12-14T00:15:27;9.37;77.15
79020;DHT22;72857;44.740;37.770;2023-12-14T00:16:29;9.35;77.38
79020;DHT22;72857;44.740;37.770;2023-12-14T00:17:31;9.35;77.50
79020;DHT22;72857;44.740;37.770;2023-12-14T00:18:32;9.36;77.51
79020;DHT22;72857;44.740;37.770;2023-12-14T00:19:34;9.33;77.68
79020;DHT22;72857;44.740;37.770;2023-12-14T00:20:38;9.36;77.79
79020;DHT22;72857;44.740;37.770;2023-12-14T00:21:40;9.36;78.05
79020;DHT22;72857;44.740;37.770;2023-12-14T00:22:41;9.32;77.90
79020;DHT22;72857;44.740;37.770;2023-12-14T00:23:43;9.27;78.06
79020;DHT22;72857;44.740;37.770;2023-12-14T00:24:45;9.30;78.10
79020;DHT22;72857;44.740;37.770;2023-12-14T00:25:47;9.29;78.02
79020;DHT22;72857;44.740;37.770;2023-12-14T00:26:48;9.29;77.96
79020;DHT22;72857;44.740;37.770;2023-12-14T00:27:50;9.30;78.08
79020;DHT22;72857;44.740;37.770;2023-12-14T00:28:51;9.32;77.88
79020;DHT22;72857;44.740;37.770;2023-12-14T00:29:53;9.30;77.66
79020;DHT22;72857;44.740;37.770;2023-12-14T00:30:55;9.29;77.73
79020;DHT22;72857;44.740;37.770;2023-12-14T00:31:56;9.26;78.12
79020;DHT22;72857;44.740;37.770;2023-12-14T00:32:58;9.29;78.21
79020;DHT22;72857;44.740;37.770;2023-12-14T00:33:59;9.30;78.23
79020;DHT22;72857;44.740;37.770;2023-12-14T00:35:01;9.26;78.23
79020;DHT22;72857;44.740;37.770;2023-12-14T00:36:03;9.20;78.27
79020;DHT22;72857;44.740;37.770;2023-12-14T00:37:04;9.20;78.39
79020;DHT22;72857;44.740;37.770;2023-12-14T00:38:06;9.18;78.28
79020;DHT22;72857;44.740;37.770;2023-12-14T00:39:08;9.19;78.20
79020;DHT22;72857;44.740;37.770;2023-12-14T00:40:10;9.19;78.38
79020;DHT22;72857;44.740;37.770;2023-12-14T00:41:12;9.25;78.66
79020;DHT22;72857;44.740;37.770;2023-12-14T00:42:14;9.23;78.54
79020;DHT22;72857;44.740;37.770;2023-12-14T00:43:15;9.23;78.05
79020;DHT22;72857;44.740;37.770;2023-12-14T00:44:17;9.16;78.29
79020;DHT22;72857;44.740;37.770;2023-12-14T00:45:19;9.16;78.32
79020;DHT22;72857;44.740;37.770;2023-12-14T00:46:20;9.22;78.54
79020;DHT22;72857;44.740;37.770;2023-12-14T00:47:22;9.25;78.48
79020;DHT22;72857;44.740;37.770;2023-12-14T00:48:23;9.29;78.70
79020;DHT22;72857;44.740;37.770;2023-12-14T00:49:25;9.27;78.52
79020;DHT22;72857;44.740;37.770;2023-12-14T00:50:29;9.29;78.51
79020;DHT22;72857;44.740;37.770;2023-12-14T00:51:30;9.26;78.49
79020;DHT22;72857;44.740;37.770;2023-12-14T00:52:32;9.26;78.47
79020;DHT22;72857;44.740;37.770;2023-12-14T00:53:34;9.26;78.34
79020;DHT22;72857;44.740;37.770;2023-12-14T00:54:37;9.23;78.46
79020;DHT22;72857;44.740;37.770;2023-12-14T00:55:39;9.25;78.74
79020;DHT22;72857;44.740;37.770;2023-12-14T00:56:40;9.27;78.65
79020;DHT22;72857;44.740;37.770;2023-12-14T00:57:42;9.26;78.61
79020;DHT22;72857;44.740;37.770;2023-12-14T00:58:44;9.26;78.60
79020;DHT22;72857;44.740;37.770;2023-12-14T00:59:45;9.27;78.25
79020;DHT22;72857;44.740;37.770;2023-12-14T01:00:47;9.29;78.20
79020;DHT22;72857;44.740;37.770;2023-12-14T01:01:49;9.29;77.87
79020;DHT22;72857;44.740;37.770;2023-12-14T01:02:50;9.26;77.86
79020;DHT22;72857;44.740;37.770;2023-12-14T01:03:52;9.29;77.85
79020;DHT22;72857;44.740;37.770;2023-12-14T01:04:54;9.27;78.17
79020;DHT22;72857;44.740;37.770;2023-12-14T01:05:56;9.27;78.24
79020;DHT22;72857;44.740;37.770;2023-12-14T01:06:57;9.25;78.24
79020;DHT22;72857;44.740;37.770;2023-12-14T01:07:59;9.23;78.46
79020;DHT22;72857;44.740;37.770;2023-12-14T01:09:01;9.20;78.73
79020;DHT22;72857;44.740;37.770;2023-12-14T01:10:03;9.27;78.58
79020;DHT22;72857;44.740;37.770;2023-12-14T01:11:06;9.25;78.58
79020;DHT22;72857;44.740;37.770;2023-12-14T01:12:09;9.25;78.52
79020;DHT22;72857;44.740;37.770;2023-12-14T01:13:10;9.26;78.48
79020;DHT22;72857;44.740;37.770;2023-12-14T01:14:12;9.26;78.40
79020;DHT22;72857;44.740;37.770;2023-12-14T01:15:13;9.29;78.48
79020;DHT22;72857;44.740;37.770;2023-12-14T01:16:15;9.32;78.36
79020;DHT22;72857;44.740;37.770;2023-12-14T01:17:17;9.27;78.24
79020;DHT22;72857;44.740;37.770;2023-12-14T01:18:19;9.29;78.37
79020;DHT22;72857;44.740;37.770;2023-12-14T01:19:21;9.29;78.39
79020;DHT22;72857;44.740;37.770;2023-12-14T01:20:22;9.30;78.49
79020;DHT22;72857;44.740;37.770;2023-12-14T01:21:24;9.30;78.60
79020;DHT22;72857;44.740;37.770;2023-12-14T01:22:26;9.35;78.42
79020;DHT22;72857;44.740;37.770;2023-12-14T01:23:27;9.35;78.27
79020;DHT22;72857;44.740;37.770;2023-12-14T01:24:29;9.36;78.31
79020;DHT22;72857;44.740;37.770;2023-12-14T01:25:31;9.35;78.18
79020;DHT22;72857;44.740;37.770;2023-12-14T01:26:32;9.35;78.17
79020;DHT22;72857;44.740;37.770;2023-12-14T01:27:34;9.35;78.41
79020;DHT22;72857;44.740;37.770;2023-12-14T01:28:36;9.37;78.36
79020;DHT22;72857;44.740;37.770;2023-12-14T01:29:37;9.36;78.48
79020;DHT22;72857;44.740;37.770;2023-12-14T01:30:39;9.37;78.45
79020;DHT22;72857;44.740;37.770;2023-12-14T01:31:41;9.37;78.46
79020;DHT22;72857;44.740;37.770;2023-12-14T01:32:42;9.36;78.41
79020;DHT22;72857;44.740;37.770;2023-12-14T01:33:44;9.42;78.52
79020;DHT22;72857;44.740;37.770;2023-12-14T01:34:48;9.39;78.52
79020;DHT22;72857;44.740;37.770;2023-12-14T01:35:50;9.37;78.59
79020;DHT22;72857;44.740;37.770;2023-12-14T01:36:52;9.39;78.73
79020;DHT22;72857;44.740;37.770;2023-12-14T01:37:53;9.40;78.60
79020;DHT22;72857;44.740;37.770;2023-12-14T01:38:55;9.42;78.42
79020;DHT22;72857;44.740;37.770;2023-12-14T01:39:56;9.47;78.50
79020;DHT22;72857;44.740;37.770;2023-12-14T01:40:58;9.48;78.65
79020;DHT22;72857;44.740;37.770;2023-12-14T01:42:01;9.50;78.62
79020;DHT22;72857;44.740;37.770;2023-12-14T01:43:09;9.53;78.37
79020;DHT22;72857;44.740;37.770;2023-12-14T01:44:14;9.54;78.34
79020;DHT22;72857;44.740;37.770;2023-12-14T01:45:15;9.54;78.35
79020;DHT22;72857;44.740;37.770;2023-12-14T01:46:17;9.56;78.43
79020;DHT22;72857;44.740;37.770;2023-12-14T01:47:19;9.51;78.55
79020;DHT22;72857;44.740;37.770;2023-12-14T01:48:21;9.56;78.46
79020;DHT22;72857;44.740;37.770;2023-12-14T01:49:22;9.53;78.50
79020;DHT22;72857;44.740;37.770;2023-12-14T01:50:24;9.53;78.53
79020;DHT22;72857;44.740;37.770;2023-12-14T01:51:26;9.51;78.49
79020;DHT22;72857;44.740;37.770;2023-12-14T01:52:27;9.53;78.41
79020;DHT22;72857;44.740;37.770;2023-12-14T01:53:29;9.51;78.44
79020;DHT22;72857;44.740;37.770;2023-12-14T01:54:31;9.51;78.56
79020;DHT22;72857;44.740;37.770;2023-12-14T01:55:32;9.56;78.74
79020;DHT22;72857;44.740;37.770;2023-12-14T01:56:34;9.54;78.73
79020;DHT22;72857;44.740;37.770;2023-12-14T01:57:36;9.56;78.54
79020;DHT22;72857;44.740;37.770;2023-12-14T01:58:37;9.56;78.47
79020;DHT22;72857;44.740;37.770;2023-12-14T01:59:39;9.58;78.47
79020;DHT22;72857;44.740;37.770;2023-12-14T02:00:50;9.60;78.48
79020;DHT22;72857;44.740;37.770;2023-12-14T02:01:55;9.63;78.46
79020;DHT22;72857;44.740;37.770;2023-12-14T02:02:57;9.63;78.37
79020;DHT22;72857;44.740;37.770;2023-12-14T02:03:59;9.64;78.34
79020;DHT22;72857;44.740;37.770;2023-12-14T02:05:01;9.66;78.42
79020;DHT22;72857;44.740;37.770;2023-12-14T02:06:03;9.70;78.41
79020;DHT22;72857;44.740;37.770;2023-12-14T02:07:05;9.70;78.31
79020;DHT22;72857;44.740;37.770;2023-12-14T02:08:07;9.74;78.31
79020;DHT22;72857;44.740;37.770;2023-12-14T02:09:09;9.76;78.61
79020;DHT22;72857;44.740;37.770;2023-12-14T02:10:11;9.76;78.56
79020;DHT22;72857;44.740;37.770;2023-12-14T02:11:13;9.77;78.81
79020;DHT22;72857;44.740;37.770;2023-12-14T02:12:14;9.80;78.89
79020;DHT22;72857;44.740;37.770;2023-12-14T02:13:16;9.81;78.76
79020;DHT22;72857;44.740;37.770;2023-12-14T02:14:17;9.78;78.81
79020;DHT22;72857;44.740;37.770;2023-12-14T02:15:19;9.81;78.93
79020;DHT22;72857;44.740;37.770;2023-12-14T02:16:21;9.83;78.96
79020;DHT22;72857;44.740;37.770;2023-12-14T02:17:23;9.84;78.95
79020;DHT22;72857;44.740;37.770;2023-12-14T02:18:24;9.85;79.00
79020;DHT22;72857;44.740;37.770;2023-12-14T02:19:26;9.85;78.98
79020;DHT22;72857;44.740;37.770;2023-12-14T02:20:27;9.88;78.82
79020;DHT22;72857;44.740;37.770;2023-12-14T02:21:29;9.88;78.62
79020;DHT22;72857;44.740;37.770;2023-12-14T02:22:47;9.87;78.60
79020;DHT22;72857;44.740;37.770;2023-12-14T02:23:50;9.88;78.45
79020;DHT22;72857;44.740;37.770;2023-12-14T02:24:52;9.90;78.37
79020;DHT22;72857;44.740;37.770;2023-12-14T02:25:53;9.90;78.49
79020;DHT22;72857;44.740;37.770;2023-12-14T02:26:56;9.93;78.32
79020;DHT22;72857;44.740;37.770;2023-12-14T02:27:58;9.93;78.42
79020;DHT22;72857;44.740;37.770;2023-12-14T02:29:00;9.93;78.21
79020;DHT22;72857;44.740;37.770;2023-12-14T02:30:02;9.93;78.27
79020;DHT22;72857;44.740;37.770;2023-12-14T02:31:04;9.93;78.33
79020;DHT22;72857;44.740;37.770;2023-12-14T02:32:05;9.91;78.35
79020;DHT22;72857;44.740;37.770;2023-12-14T02:33:07;9.94;78.32
79020;DHT22;72857;44.740;37.770;2023-12-14T02:34:09;9.97;78.33
79020;DHT22;72857;44.740;37.770;2023-12-14T02:35:10;9.94;78.34
79020;DHT22;72857;44.740;37.770;2023-12-14T02:36:12;9.99;78.28
79020;DHT22;72857;44.740;37.770;2023-12-14T02:37:13;9.97;78.33
79020;DHT22;72857;44.740;37.770;2023-12-14T02:38:15;9.99;78.18
79020;DHT22;72857;44.740;37.770;2023-12-14T02:39:20;10.01;77.99
79020;DHT22;72857;44.740;37.770;2023-12-14T02:40:21;10.05;77.89
79020;DHT22;72857;44.740;37.770;2023-12-14T02:41:23;10.05;77.87
79020;DHT22;72857;44.740;37.770;2023-12-14T02:42:25;10.05;78.00
79020;DHT22;72857;44.740;37.770;2023-12-14T02:43:26;10.09;77.99
79020;DHT22;72857;44.740;37.770;2023-12-14T02:44:28;10.08;77.68
79020;DHT22;72857;44.740;37.770;2023-12-14T02:45:29;10.07;77.73
79020;DHT22;72857;44.740;37.770;2023-12-14T02:46:31;10.07;77.80
79020;DHT22;72857;44.740;37.770;2023-12-14T02:47:32;10.05;77.94
79020;DHT22;72857;44.740;37.770;2023-12-14T02:48:34;10.07;78.08
79020;DHT22;72857;44.740;37.770;2023-12-14T02:49:36;10.08;78.25
79020;DHT22;72857;44.740;37.770;2023-12-14T02:50:37;10.09;78.21
79020;DHT22;72857;44.740;37.770;2023-12-14T02:51:39;10.11;78.17
79020;DHT22;72857;44.740;37.770;2023-12-14T02:52:41;10.08;78.12
79020;DHT22;72857;44.740;37.770;2023-12-14T02:53:42;10.08;78.20
79020;DHT22;72857;44.740;37.770;2023-12-14T02:54:44;10.05;78.33
79020;DHT22;72857;44.740;37.770;2023-12-14T02:55:46;10.02;78.50
79020;DHT22;72857;44.740;37.770;2023-12-14T02:56:47;10.05;78.54
79020;DHT22;72857;44.740;37.770;2023-12-14T02:57:49;10.04;78.79
79020;DHT22;72857;44.740;37.770;2023-12-14T02:58:51;10.01;78.68
79020;DHT22;72857;44.740;37.770;2023-12-14T02:59:55;9.99;78.78
79020;DHT22;72857;44.740;37.770;2023-12-14T03:00:56;10.01;78.61
79020;DHT22;72857;44.740;37.770;2023-12-14T03:01:58;10.01;78.47
79020;DHT22;72857;44.740;37.770;2023-12-14T03:02:59;10.05;78.27
79020;DHT22;72857;44.740;37.770;2023-12-14T03:04:01;10.04;78.07
79020;DHT22;72857;44.740;37.770;2023-12-14T03:05:03;10.04;78.20
79020;DHT22;72857;44.740;37.770;2023-12-14T03:06:05;10.07;78.14
79020;DHT22;72857;44.740;37.770;2023-12-14T03:07:06;10.05;78.37
79020;DHT22;72857;44.740;37.770;2023-12-14T03:08:08;10.04;78.31
79020;DHT22;72857;44.740;37.770;2023-12-14T03:09:10;10.01;78.30
79020;DHT22;72857;44.740;37.770;2023-12-14T03:10:11;10.01;78.39
79020;DHT22;72857;44.740;37.770;2023-12-14T03:11:21;9.97;78.23
79020;DHT22;72857;44.740;37.770;2023-12-14T03:12:24;9.93;78.41
79020;DHT22;72857;44.740;37.770;2023-12-14T03:13:25;9.93;78.48
79020;DHT22;72857;44.740;37.770;2023-12-14T03:14:31;9.91;78.49
79020;DHT22;72857;44.740;37.770;2023-12-14T03:15:33;9.88;78.50
79020;DHT22;72857;44.740;37.770;2023-12-14T03:16:35;9.90;78.60
79020;DHT22;72857;44.740;37.770;2023-12-14T03:17:37;9.90;78.46
79020;DHT22;72857;44.740;37.770;2023-12-14T03:18:38;9.88;78.34
79020;DHT22;72857;44.740;37.770;2023-12-14T03:19:40;9.87;78.48
79020;DHT22;72857;44.740;37.770;2023-12-14T03:20:42;9.84;78.30
79020;DHT22;72857;44.740;37.770;2023-12-14T03:21:43;9.81;78.52
79020;DHT22;72857;44.740;37.770;2023-12-14T03:22:45;9.78;78.55
79020;DHT22;72857;44.740;37.770;2023-12-14T03:23:47;9.74;78.69
79020;DHT22;72857;44.740;37.770;2023-12-14T03:24:48;9.73;78.78
79020;DHT22;72857;44.740;37.770;2023-12-14T03:25:50;9.71;78.72
79020;DHT22;72857;44.740;37.770;2023-12-14T03:26:51;9.70;78.68
79020;DHT22;72857;44.740;37.770;2023-12-14T03:27:53;9.61;78.64
79020;DHT22;72857;44.740;37.770;2023-12-14T03:28:55;9.58;79.02
79020;DHT22;72857;44.740;37.770;2023-12-14T03:29:56;9.58;79.27
79020;DHT22;72857;44.740;37.770;2023-12-14T03:30:58;9.58;79.24
79020;DHT22;72857;44.740;37.770;2023-12-14T03:31:59;9.61;79.14
79020;DHT22;72857;44.740;37.770;2023-12-14T03:33:01;9.64;79.15
79020;DHT22;72857;44.740;37.770;2023-12-14T03:34:03;9.64;79.11
79020;DHT22;72857;44.740;37.770;2023-12-14T03:35:05;9.66;79.14
79020;DHT22;72857;44.740;37.770;2023-12-14T03:36:07;9.66;79.15
79020;DHT22;72857;44.740;37.770;2023-12-14T03:37:08;9.71;79.06
79020;DHT22;72857;44.740;37.770;2023-12-14T03:38:10;9.73;78.82
79020;DHT22;72857;44.740;37.770;2023-12-14T03:39:12;9.74;78.96
79020;DHT22;72857;44.740;37.770;2023-12-14T03:40:13;9.73;78.60
79020;DHT22;72857;44.740;37.770;2023-12-14T03:41:15;9.71;78.59
79020;DHT22;72857;44.740;37.770;2023-12-14T03:42:16;9.71;78.54
79020;DHT22;72857;44.740;37.770;2023-12-14T03:43:19;9.70;78.46
79020;DHT22;72857;44.740;37.770;2023-12-14T03:44:20;9.70;78.46
79020;DHT22;72857;44.740;37.770;2023-12-14T03:45:22;9.67;78.54
79020;DHT22;72857;44.740;37.770;2023-12-14T03:46:24;9.64;78.48
79020;DHT22;72857;44.740;37.770;2023-12-14T03:47:26;9.61;78.84
79020;DHT22;72857;44.740;37.770;2023-12-14T03:48:27;9.61;79.14
79020;DHT22;72857;44.740;37.770;2023-12-14T03:49:29;9.64;79.11
79020;DHT22;72857;44.740;37.770;2023-12-14T03:50:31;9.64;79.25
79020;DHT22;72857;44.740;37.770;2023-12-14T03:51:34;9.63;79.15
79020;DHT22;72857;44.740;37.770;2023-12-14T03:52:35;9.63;79.25
79020;DHT22;72857;44.740;37.770;2023-12-14T03:53:37;9.67;79.18
79020;DHT22;72857;44.740;37.770;2023-12-14T03:54:38;9.66;78.89
79020;DHT22;72857;44.740;37.770;2023-12-14T03:55:40;9.69;78.88
79020;DHT22;72857;44.740;37.770;2023-12-14T03:56:42;9.66;79.02
79020;DHT22;72857;44.740;37.770;2023-12-14T03:57:43;9.67;78.90
79020;DHT22;72857;44.740;37.770;2023-12-14T03:58:45;9.69;78.85
79020;DHT22;72857;44.740;37.770;2023-12-14T03:59:46;9.76;78.77
79020;DHT22;72857;44.740;37.770;2023-12-14T04:00:48;9.76;78.61
79020;DHT22;72857;44.740;37.770;2023-12-14T04:01:50;9.76;78.79
79020;DHT22;72857;44.740;37.770;2023-12-14T04:02:51;9.71;78.87
79020;DHT22;72857;44.740;37.770;2023-12-14T04:03:53;9.76;79.02
79020;DHT22;72857;44.740;37.770;2023-12-14T04:04:55;9.81;78.63
79020;DHT22;72857;44.740;37.770;2023-12-14T04:05:56;9.80;78.37
79020;DHT22;72857;44.740;37.770;2023-12-14T04:06:58;9.81;78.31
79020;DHT22;72857;44.740;37.770;2023-12-14T04:08:00;9.80;78.11
79020;DHT22;72857;44.740;37.770;2023-12-14T04:09:01;9.83;78.18
79020;DHT22;72857;44.740;37.770;2023-12-14T04:10:03;9.83;78.06
79020;DHT22;72857;44.740;37.770;2023-12-14T04:11:05;9.76;78.49
79020;DHT22;72857;44.740;37.770;2023-12-14T04:12:07;9.74;78.72
79020;DHT22;72857;44.740;37.770;2023-12-14T04:13:08;9.69;78.61
79020;DHT22;72857;44.740;37.770;2023-12-14T04:14:10;9.64;78.96
79020;DHT22;72857;44.740;37.770;2023-12-14T04:15:12;9.66;78.94
79020;DHT22;72857;44.740;37.770;2023-12-14T04:16:14;9.64;78.90
79020;DHT22;72857;44.740;37.770;2023-12-14T04:17:15;9.63;79.16
79020;DHT22;72857;44.740;37.770;2023-12-14T04:18:17;9.60;79.06
79020;DHT22;72857;44.740;37.770;2023-12-14T04:19:18;9.58;79.12
79020;DHT22;72857;44.740;37.770;2023-12-14T04:20:20;9.57;79.15
79020;DHT22;72857;44.740;37.770;2023-12-14T04:21:22;9.58;79.33
79020;DHT22;72857;44.740;37.770;2023-12-14T04:22:24;9.58;79.07
79020;DHT22;72857;44.740;37.770;2023-12-14T04:23:26;9.61;79.13
79020;DHT22;72857;44.740;37.770;2023-12-14T04:24:28;9.64;79.10
79020;DHT22;72857;44.740;37.770;2023-12-14T04:25:29;9.63;79.02
79020;DHT22;72857;44.740;37.770;2023-12-14T04:26:31;9.61;79.02
79020;DHT22;72857;44.740;37.770;2023-12-14T04:27:33;9.66;79.15
79020;DHT22;72857;44.740;37.770;2023-12-14T04:28:34;9.63;79.10
79020;DHT22;72857;44.740;37.770;2023-12-14T04:29:36;9.63;79.31
79020;DHT22;72857;44.740;37.770;2023-12-14T04:30:38;9.63;79.36
79020;DHT22;72857;44.740;37.770;2023-12-14T04:31:40;9.58;79.52
79020;DHT22;72857;44.740;37.770;2023-12-14T04:32:41;9.63;79.30
79020;DHT22;72857;44.740;37.770;2023-12-14T04:33:43;9.63;79.13
79020;DHT22;72857;44.740;37.770;2023-12-14T04:34:44;9.66;79.19
79020;DHT22;72857;44.740;37.770;2023-12-14T04:35:46;9.66;79.10
79020;DHT22;72857;44.740;37.770;2023-12-14T04:36:48;9.69;79.14
79020;DHT22;72857;44.740;37.770;2023-12-14T04:37:50;9.74;79.17
79020;DHT22;72857;44.740;37.770;2023-12-14T04:38:52;9.77;79.32
79020;DHT22;72857;44.740;37.770;2023-12-14T04:39:53;9.85;79.30
79020;DHT22;72857;44.740;37.770;2023-12-14T04:40:55;9.88;79.17
79020;DHT22;72857;44.740;37.770;2023-12-14T04:41:57;9.90;79.10
79020;DHT22;72857;44.740;37.770;2023-12-14T04:42:58;9.99;79.33
79020;DHT22;72857;44.740;37.770;2023-12-14T04:44:00;10.07;79.24
79020;DHT22;72857;44.740;37.770;2023-12-14T04:45:02;10.09;79.17
79020;DHT22;72857;44.740;37.770;2023-12-14T04:46:03;10.15;79.10
79020;DHT22;72857;44.740;37.770;2023-12-14T04:47:07;10.22;79.03
79020;DHT22;72857;44.740;37.770;2023-12-14T04:48:09;10.26;78.98
79020;DHT22;72857;44.740;37.770;2023-12-14T04:49:11;10.35;78.82
79020;DHT22;72857;44.740;37.770;2023-12-14T04:50:12;10.42;78.80
79020;DHT22;72857;44.740;37.770;2023-12-14T04:51:14;10.45;78.76
79020;DHT22;72857;44.740;37.770;2023-12-14T04:52:16;10.50;78.51
79020;DHT22;72857;44.740;37.770;2023-12-14T04:53:17;10.53;78.50
79020;DHT22;72857;44.740;37.770;2023-12-14T04:54:19;10.57;77.97
79020;DHT22;72857;44.740;37.770;2023-12-14T04:55:21;10.60;77.84
79020;DHT22;72857;44.740;37.770;2023-12-14T04:56:23;10.65;77.75
79020;DHT22;72857;44.740;37.770;2023-12-14T04:57:24;10.66;77.33
79020;DHT22;72857;44.740;37.770;2023-12-14T04:58:26;10.73;77.16
79020;DHT22;72857;44.740;37.770;2023-12-14T04:59:28;10.75;77.09
79020;DHT22;72857;44.740;37.770;2023-12-14T05:00:29;10.75;76.95
79020;DHT22;72857;44.740;37.770;2023-12-14T05:01:31;10.76;76.61
79020;DHT22;72857;44.740;37.770;2023-12-14T05:02:32;10.77;76.54
79020;DHT22;72857;44.740;37.770;2023-12-14T05:03:35;10.77;76.40
79020;DHT22;72857;44.740;37.770;2023-12-14T05:04:36;10.80;76.38
79020;DHT22;72857;44.740;37.770;2023-12-14T05:05:38;10.83;75.94
79020;DHT22;72857;44.740;37.770;2023-12-14T05:06:42;10.86;75.86
79020;DHT22;72857;44.740;37.770;2023-12-14T05:07:44;10.83;75.84
79020;DHT22;72857;44.740;37.770;2023-12-14T05:08:45;10.86;75.72
79020;DHT22;72857;44.740;37.770;2023-12-14T05:09:47;10.89;75.58
79020;DHT22;72857;44.740;37.770;2023-12-14T05:10:48;10.87;75.41
79020;DHT22;72857;44.740;37.770;2023-12-14T05:11:50;10.89;75.49
79020;DHT22;72857;44.740;37.770;2023-12-14T05:12:52;10.90;75.31
79020;DHT22;72857;44.740;37.770;2023-12-14T05:13:53;10.90;75.48
79020;DHT22;72857;44.740;37.770;2023-12-14T05:14:55;10.93;75.36
79020;DHT22;72857;44.740;37.770;2023-12-14T05:15:57;10.94;75.27
79020;DHT22;72857;44.740;37.770;2023-12-14T05:17:02;10.96;75.38
79020;DHT22;72857;44.740;37.770;2023-12-14T05:18:04;10.97;75.29
79020;DHT22;72857;44.740;37.770;2023-12-14T05:19:06;10.96;74.97
79020;DHT22;72857;44.740;37.770;2023-12-14T05:20:08;10.97;75.05
79020;DHT22;72857;44.740;37.770;2023-12-14T05:21:10;11.03;74.81
79020;DHT22;72857;44.740;37.770;2023-12-14T05:22:17;11.00;75.02
79020;DHT22;72857;44.740;37.770;2023-12-14T05:23:19;11.01;74.87
79020;DHT22;72857;44.740;37.770;2023-12-14T05:24:20;11.03;74.80
79020;DHT22;72857;44.740;37.770;2023-12-14T05:25:22;11.03;74.76
79020;DHT22;72857;44.740;37.770;2023-12-14T05:26:24;11.04;74.67
79020;DHT22;72857;44.740;37.770;2023-12-14T05:27:25;11.04;74.75
79020;DHT22;72857;44.740;37.770;2023-12-14T05:28:27;11.01;74.54
79020;DHT22;72857;44.740;37.770;2023-12-14T05:29:28;11.03;74.70
79020;DHT22;72857;44.740;37.770;2023-12-14T05:30:30;11.07;74.81
79020;DHT22;72857;44.740;37.770;2023-12-14T05:31:32;11.04;74.65
79020;DHT22;72857;44.740;37.770;2023-12-14T05:32:33;11.04;74.52
79020;DHT22;72857;44.740;37.770;2023-12-14T05:33:38;11.07;74.58
79020;DHT22;72857;44.740;37.770;2023-12-14T05:34:40;11.10;74.72
79020;DHT22;72857;44.740;37.770;2023-12-14T05:35:41;11.11;74.66
79020;DHT22;72857;44.740;37.770;2023-12-14T05:36:43;11.11;74.87
79020;DHT22;72857;44.740;37.770;2023-12-14T05:37:44;11.10;74.54
79020;DHT22;72857;44.740;37.770;2023-12-14T05:38:46;11.14;74.54
79020;DHT22;72857;44.740;37.770;2023-12-14T05:39:48;11.16;74.36
79020;DHT22;72857;44.740;37.770;2023-12-14T05:40:49;11.16;74.51
79020;DHT22;72857;44.740;37.770;2023-12-14T05:41:51;11.20;74.61
79020;DHT22;72857;44.740;37.770;2023-12-14T05:42:54;11.23;74.81
79020;DHT22;72857;44.740;37.770;2023-12-14T05:43:56;11.28;74.70
79020;DHT22;72857;44.740;37.770;2023-12-14T05:44:57;11.31;74.18
79020;DHT22;72857;44.740;37.770;2023-12-14T05:45:59;11.30;74.34
79020;DHT22;72857;44.740;37.770;2023-12-14T05:47:01;11.34;74.25
79020;DHT22;72857;44.740;37.770;2023-12-14T05:48:03;11.31;74.21
79020;DHT22;72857;44.740;37.770;2023-12-14T05:49:06;11.34;74.04
79020;DHT22;72857;44.740;37.770;2023-12-14T05:50:08;11.35;73.97
79020;DHT22;72857;44.740;37.770;2023-12-14T05:51:11;11.37;73.73
79020;DHT22;72857;44.740;37.770;2023-12-14T05:52:12;11.35;74.11
79020;DHT22;72857;44.740;37.770;2023-12-14T05:53:14;11.35;73.80
79020;DHT22;72857;44.740;37.770;2023-12-14T05:54:16;11.39;73.66
79020;DHT22;72857;44.740;37.770;2023-12-14T05:55:17;11.39;73.72
79020;DHT22;72857;44.740;37.770;2023-12-14T05:56:23;11.39;73.90
79020;DHT22;72857;44.740;37.770;2023-12-14T05:57:25;11.42;73.82
79020;DHT22;72857;44.740;37.770;2023-12-14T05:58:26;11.48;73.73
79020;DHT22;72857;44.740;37.770;2023-12-14T05:59:28;11.52;73.54
79020;DHT22;72857;44.740;37.770;2023-12-14T06:00:30;11.55;73.66
79020;DHT22;72857;44.740;37.770;2023-12-14T06:01:33;11.59;73.62
79020;DHT22;72857;44.740;37.770;2023-12-14T06:02:34;11.58;73.14
79020;DHT22;72857;44.740;37.770;2023-12-14T06:03:38;11.58;73.37
79020;DHT22;72857;44.740;37.770;2023-12-14T06:04:40;11.64;73.21
79020;DHT22;72857;44.740;37.770;2023-12-14T06:05:41;11.64;73.25
79020;DHT22;72857;44.740;37.770;2023-12-14T06:06:43;11.62;72.96
79020;DHT22;72857;44.740;37.770;2023-12-14T06:07:44;11.66;72.79
79020;DHT22;72857;44.740;37.770;2023-12-14T06:08:46;11.69;72.89
79020;DHT22;72857;44.740;37.770;2023-12-14T06:09:48;11.71;73.11
79020;DHT22;72857;44.740;37.770;2023-12-14T06:10:49;11.72;72.90
79020;DHT22;72857;44.740;37.770;2023-12-14T06:11:51;11.75;72.74
79020;DHT22;72857;44.740;37.770;2023-12-14T06:12:52;11.75;72.87
79020;DHT22;72857;44.740;37.770;2023-12-14T06:13:54;11.75;72.68
79020;DHT22;72857;44.740;37.770;2023-12-14T06:14:56;11.76;72.72
79020;DHT22;72857;44.740;37.770;2023-12-14T06:15:57;11.75;72.66
79020;DHT22;72857;44.740;37.770;2023-12-14T06:16:59;11.76;72.53
79020;DHT22;72857;44.740;37.770;2023-12-14T06:18:00;11.79;72.79
79020;DHT22;72857;44.740;37.770;2023-12-14T06:19:02;11.82;72.76
79020;DHT22;72857;44.740;37.770;2023-12-14T06:20:04;11.85;72.86
79020;DHT22;72857;44.740;37.770;2023-12-14T06:21:07;11.86;72.42
79020;DHT22;72857;44.740;37.770;2023-12-14T06:22:08;11.86;72.16
79020;DHT22;72857;44.740;37.770;2023-12-14T06:23:10;11.90;72.30
79020;DHT22;72857;44.740;37.770;2023-12-14T06:24:12;11.85;72.30
79020;DHT22;72857;44.740;37.770;2023-12-14T06:25:13;11.85;72.24
79020;DHT22;72857;44.740;37.770;2023-12-14T06:26:15;11.83;72.36
79020;DHT22;72857;44.740;37.770;2023-12-14T06:27:17;11.83;72.35
79020;DHT22;72857;44.740;37.770;2023-12-14T06:28:18;11.85;72.54
79020;DHT22;72857;44.740;37.770;2023-12-14T06:29:20;11.83;72.50